Time;durP1;ratioP1;P1;durP2;ratioP2;P2;SDS_P1;SDS_P2;PMS_P1;PMS_P2;Temp;Humidity;BMP_temperature;BMP_pressure;BME280_temperature;BME280_humidity;BME280_pressure;Samples;Min_cycle;Max_cycle;Signal;HPM_P1;HPM_P2
2021/01/05 00:01:34;;;;;;;5.38;3.42;;;20.60;44.10;;;;;;5111705;28;20023;-44
2021/01/05 00:04:00;;;;;;;6.63;3.78;;;20.60;44.10;;;;;;5109483;28;20076;-50
2021/01/05 00:06:26;;;;;;;5.78;3.22;;;20.60;44.10;;;;;;5110775;27;20044;-44
2021/01/05 00:08:52;;;;;;;5.43;3.35;;;20.60;44.10;;;;;;5110404;28;20074;-54
2021/01/05 00:11:18;;;;;;;5.93;3.58;;;20.60;44.00;;;;;;5111254;28;20027;-41
2021/01/05 00:13:44;;;;;;;5.68;3.45;;;20.60;44.00;;;;;;5111105;28;20027;-38
2021/01/05 00:16:09;;;;;;;5.57;3.28;;;20.60;44.00;;;;;;5111814;28;20034;-44
2021/01/05 00:18:35;;;;;;;5.47;3.70;;;20.60;44.00;;;;;;5118746;27;20457;-59
2021/01/05 00:21:01;;;;;;;5.88;3.28;;;20.60;44.00;;;;;;5111491;27;20036;-42
2021/01/05 00:23:27;;;;;;;5.68;3.30;;;20.60;43.90;;;;;;5111753;28;20028;-44
2021/01/05 00:25:52;;;;;;;8.57;5.10;;;20.60;43.90;;;;;;5109601;28;20388;-43
2021/01/05 00:28:18;;;;;;;4.78;3.05;;;20.60;43.80;;;;;;5110086;28;20032;-41
2021/01/05 00:30:44;;;;;;;5.60;3.78;;;20.60;43.90;;;;;;5110683;28;20022;-36
2021/01/05 00:33:09;;;;;;;6.47;3.95;;;20.60;43.80;;;;;;5113314;27;20365;-52
2021/01/05 00:35:39;;;;;;;5.40;3.65;;;20.60;43.80;;;;;;5111470;28;20059;-59
2021/01/05 00:38:09;;;;;;;4.45;3.20;;;20.60;43.80;;;;;;5111187;28;20072;-46
2021/01/05 00:40:36;;;;;;;4.60;3.70;;;20.60;43.80;;;;;;5111229;28;20031;-45
2021/01/05 00:43:02;;;;;;;4.55;3.30;;;20.60;43.80;;;;;;5110350;28;20488;-43
2021/01/05 00:45:34;;;;;;;5.75;3.25;;;20.70;43.80;;;;;;5110878;28;20106;-49
2021/01/05 00:48:01;;;;;;;4.88;3.80;;;20.60;43.70;;;;;;5111349;27;20027;-45
2021/01/05 00:50:27;;;;;;;6.35;3.40;;;20.60;43.60;;;;;;5107327;28;20028;-45
2021/01/05 00:52:53;;;;;;;5.15;3.30;;;20.60;43.70;;;;;;5110146;28;20015;-43
2021/01/05 00:55:19;;;;;;;6.40;3.67;;;20.70;43.70;;;;;;5110850;28;20498;-48
2021/01/05 00:57:45;;;;;;;5.22;3.58;;;20.70;43.70;;;;;;5110255;28;20027;-44
2021/01/05 01:00:23;;;;;;;4.35;3.25;;;20.60;43.60;;;;;;5111163;28;20028;-44
2021/01/05 01:02:50;;;;;;;4.72;3.38;;;20.60;43.60;;;;;;5121982;27;20031;-47
2021/01/05 01:05:17;;;;;;;4.40;3.42;;;20.60;43.60;;;;;;5132308;27;20114;-36
2021/01/05 01:07:42;;;;;;;4.30;2.92;;;20.70;43.70;;;;;;5119156;27;20024;-42
2021/01/05 01:10:09;;;;;;;4.68;3.53;;;20.70;43.70;;;;;;5110802;28;20451;-44
2021/01/05 01:12:34;;;;;;;4.43;3.10;;;20.70;43.60;;;;;;5112057;27;20039;-44
2021/01/05 01:15:00;;;;;;;5.35;3.60;;;20.70;43.50;;;;;;5111158;28;20392;-43
2021/01/05 01:17:26;;;;;;;5.38;2.97;;;20.70;43.60;;;;;;5110501;28;20028;-44
2021/01/05 01:19:52;;;;;;;4.13;3.05;;;20.70;43.50;;;;;;5128082;27;20057;-41
2021/01/05 01:22:20;;;;;;;5.90;3.50;;;20.70;43.50;;;;;;5132409;27;20055;-40
2021/01/05 01:24:47;;;;;;;5.38;3.10;;;20.70;43.40;;;;;;5130157;27;20134;-40
2021/01/05 01:27:12;;;;;;;4.18;2.90;;;20.70;43.40;;;;;;5132287;27;20387;-41
2021/01/05 01:29:38;;;;;;;4.20;2.80;;;20.70;43.50;;;;;;5131523;27;20046;-61
2021/01/05 01:32:04;;;;;;;5.13;3.38;;;20.70;43.40;;;;;;5130551;27;20019;-42
2021/01/05 01:34:30;;;;;;;5.82;3.38;;;20.70;43.40;;;;;;5132208;27;20023;-47
2021/01/05 01:37:00;;;;;;;4.25;3.22;;;20.70;43.30;;;;;;5130931;27;20027;-45
2021/01/05 01:39:28;;;;;;;5.90;3.50;;;20.70;43.40;;;;;;5130850;27;20472;-46
2021/01/05 01:41:54;;;;;;;4.53;3.40;;;20.70;43.40;;;;;;5131113;27;20019;-44
2021/01/05 01:44:27;;;;;;;5.18;3.38;;;20.70;43.30;;;;;;5132143;27;20031;-43
2021/01/05 01:46:53;;;;;;;;;;;20.70;43.30;;;;;;5131387;27;20088;-42
2021/01/05 01:49:20;;;;;;;3.95;2.85;;;20.70;43.30;;;;;;5131486;27;20007;-43
2021/01/05 01:51:46;;;;;;;4.57;2.97;;;20.70;43.30;;;;;;5130967;27;20026;-45
2021/01/05 01:54:29;;;;;;;5.68;3.25;;;20.70;43.30;;;;;;5131632;27;20026;-45
2021/01/05 01:57:31;;;;;;;4.13;3.05;;;20.70;43.30;;;;;;5131373;27;20030;-40
2021/01/05 02:00:21;;;;;;;5.95;3.42;;;20.70;44.00;;;;;;5130215;27;20120;-46
2021/01/05 02:03:12;;;;;;;5.45;3.63;;;20.70;43.30;;;;;;5131534;27;20468;-43
2021/01/05 02:05:50;;;;;;;5.05;3.05;;;20.70;43.30;;;;;;5130994;27;20038;-62
2021/01/05 02:08:34;;;;;;;4.43;3.30;;;20.70;43.30;;;;;;5117023;28;20052;-45
2021/01/05 02:11:21;;;;;;;5.68;3.20;;;20.70;43.30;;;;;;5131167;27;20099;-44
2021/01/05 02:14:07;;;;;;;6.20;3.75;;;20.70;43.20;;;;;;5130774;27;20024;-45
2021/01/05 02:17:01;;;;;;;3.95;2.92;;;20.70;43.20;;;;;;5131572;27;20036;-43
2021/01/05 02:19:36;;;;;;;3.85;3.15;;;20.70;43.30;;;;;;5129991;28;20023;-39
2021/01/05 02:22:07;;;;;;;3.55;2.60;;;20.70;43.30;;;;;;5129435;28;20887;-36
2021/01/05 02:25:01;;;;;;;4.63;3.30;;;20.70;43.20;;;;;;5130343;28;20055;-41
2021/01/05 02:27:27;;;;;;;5.20;2.95;;;20.70;43.20;;;;;;5130308;28;20035;-45
2021/01/05 02:30:01;;;;;;;4.95;3.20;;;20.70;43.20;;;;;;5129354;28;20023;-41
2021/01/05 02:32:52;;;;;;;4.70;3.15;;;20.70;43.20;;;;;;5131831;27;20172;-44
2021/01/05 02:36:01;;;;;;;4.78;3.47;;;20.70;43.20;;;;;;5130222;28;20034;-41
2021/01/05 02:39:00;;;;;;;4.10;2.95;;;20.70;43.20;;;;;;5131302;27;20078;-42
2021/01/05 02:41:35;;;;;;;4.97;3.30;;;20.70;43.10;;;;;;5130107;28;20080;-46
2021/01/05 02:44:25;;;;;;;5.05;3.22;;;20.70;43.10;;;;;;5129382;28;20015;-42
2021/01/05 02:47:04;;;;;;;4.60;3.10;;;20.70;43.10;;;;;;5130058;27;20119;-44
2021/01/05 02:49:48;;;;;;;5.30;3.10;;;20.70;43.10;;;;;;5130703;27;20417;-45
2021/01/05 02:52:32;;;;;;;4.85;3.25;;;20.70;43.10;;;;;;5129946;28;20027;-41
2021/01/05 02:55:19;;;;;;;4.05;3.00;;;20.70;43.10;;;;;;5130245;28;20035;-44
2021/01/05 02:57:57;;;;;;;4.00;3.22;;;20.70;43.10;;;;;;5130355;27;20455;-40
2021/01/05 03:00:34;;;;;;;5.15;2.88;;;20.70;43.10;;;;;;5131189;28;20155;-53
2021/01/05 03:03:12;;;;;;;4.40;2.83;;;20.70;43.10;;;;;;5130007;28;20024;-41
2021/01/05 03:05:47;;;;;;;4.60;2.80;;;20.80;43.20;;;;;;5133199;27;20101;-43
2021/01/05 03:08:13;;;;;;;4.43;3.33;;;20.80;43.10;;;;;;5118728;27;20534;-41
2021/01/05 03:11:04;;;;;;;3.88;2.88;;;20.80;43.10;;;;;;5114620;28;20027;-40
2021/01/05 03:14:06;;;;;;;4.03;3.28;;;20.80;43.10;;;;;;5114573;28;20028;-41
2021/01/05 03:16:35;;;;;;;;;;;20.80;43.00;;;;;;5080784;28;20040;-41
2021/01/05 03:20:02;;;;;;;6.70;3.50;;;20.70;43.00;;;;;;5110825;27;19903;-46
2021/01/05 03:22:31;;;;;;;4.20;3.08;;;20.80;43.00;;;;;;5098849;27;20035;-40
2021/01/05 03:24:58;;;;;;;4.32;3.40;;;20.70;43.00;;;;;;5133952;27;20050;-43
2021/01/05 03:27:25;;;;;;;9.43;3.22;;;20.70;43.00;;;;;;5134380;27;20424;-41
2021/01/05 03:29:54;;;;;;;4.55;3.63;;;20.80;43.00;;;;;;5132660;27;20085;-42
2021/01/05 03:32:20;;;;;;;4.65;3.22;;;20.80;43.00;;;;;;5134472;27;20020;-43
2021/01/05 03:34:46;;;;;;;3.97;2.80;;;20.80;43.00;;;;;;5133486;27;20034;-43
2021/01/05 03:37:11;;;;;;;4.82;2.85;;;20.80;43.00;;;;;;5133243;27;20459;-43
2021/01/05 03:39:37;;;;;;;4.68;3.28;;;20.80;43.00;;;;;;5134319;27;20019;-34
2021/01/05 03:42:03;;;;;;;6.53;3.78;;;20.80;42.90;;;;;;5132175;27;20384;-41
2021/01/05 03:44:28;;;;;;;4.43;3.42;;;20.80;43.00;;;;;;5133028;27;20255;-39
2021/01/05 03:46:54;;;;;;;4.13;3.08;;;20.80;43.00;;;;;;5133120;27;20106;-45
2021/01/05 03:49:20;;;;;;;6.43;3.50;;;20.80;42.90;;;;;;5132178;27;20046;-45
2021/01/05 03:51:45;;;;;;;6.10;3.85;;;20.80;42.90;;;;;;5132065;27;20039;-60
2021/01/05 03:54:11;;;;;;;4.35;3.05;;;20.80;43.00;;;;;;5133834;27;20030;-47
2021/01/05 03:56:36;;;;;;;3.38;2.88;;;20.80;42.90;;;;;;5134020;27;20034;-45
2021/01/05 03:59:02;;;;;;;4.65;3.40;;;20.80;43.60;;;;;;5133286;27;20627;-43
2021/01/05 04:01:28;;;;;;;6.53;3.90;;;20.80;43.00;;;;;;5134058;27;20019;-43
2021/01/05 04:03:53;;;;;;;4.07;3.20;;;20.80;42.90;;;;;;5132985;27;20158;-41
2021/01/05 04:06:19;;;;;;;4.32;3.33;;;20.80;42.90;;;;;;5133637;27;20031;-48
2021/01/05 04:08:45;;;;;;;5.45;3.35;;;20.80;42.90;;;;;;5112311;28;20057;-62
2021/01/05 04:11:16;;;;;;;4.85;3.80;;;20.80;42.90;;;;;;5114322;27;20028;-41
2021/01/05 04:13:42;;;;;;;6.05;3.72;;;20.80;42.90;;;;;;5132259;27;20375;-61
2021/01/05 04:16:07;;;;;;;5.50;3.65;;;20.80;42.90;;;;;;5132004;27;20105;-48
2021/01/05 04:18:33;;;;;;;4.97;3.13;;;20.80;42.90;;;;;;5133020;27;20025;-47
2021/01/05 04:20:58;;;;;;;4.40;3.20;;;20.80;42.90;;;;;;5131560;27;20126;-42
2021/01/05 04:23:24;;;;;;;8.32;4.20;;;20.80;42.90;;;;;;5133317;27;20023;-41
2021/01/05 04:25:50;;;;;;;5.30;3.03;;;20.80;42.90;;;;;;5132523;27;20076;-40
2021/01/05 04:28:15;;;;;;;6.45;3.22;;;20.80;42.90;;;;;;5133324;27;20373;-42
2021/01/05 04:30:41;;;;;;;5.38;3.25;;;20.80;42.90;;;;;;5133187;27;20061;-45
2021/01/05 04:33:11;;;;;;;4.13;3.28;;;20.80;42.90;;;;;;5132734;27;20051;-44
2021/01/05 04:35:37;;;;;;;4.80;3.13;;;20.80;42.90;;;;;;5133701;27;20023;-44
2021/01/05 04:38:04;;;;;;;4.70;3.45;;;20.80;42.90;;;;;;5131314;27;20567;-44
2021/01/05 04:40:36;;;;;;;6.05;3.55;;;20.80;42.90;;;;;;5133326;27;20106;-45
2021/01/05 04:43:08;;;;;;;4.65;3.50;;;20.80;42.90;;;;;;5132471;27;20027;-43
2021/01/05 04:45:39;;;;;;;;;;;20.80;42.90;;;;;;5132309;27;20039;-45
2021/01/05 04:48:24;;;;;;;5.65;3.90;;;20.80;42.90;;;;;;5130940;27;19946;-47
2021/01/05 04:50:56;;;;;;;4.47;3.22;;;20.80;42.90;;;;;;5132229;27;20027;-43
2021/01/05 04:53:38;;;;;;;5.28;3.90;;;20.80;42.90;;;;;;5131936;27;20042;-39
2021/01/05 04:56:10;;;;;;;5.38;3.58;;;20.80;43.10;;;;;;5132229;27;20023;-37
2021/01/05 04:58:36;;;;;;;;;;;20.80;42.90;;;;;;5134699;27;20035;-40
2021/01/05 05:01:06;;;;;;;4.78;3.45;;;20.80;42.80;;;;;;5132773;27;19910;-37
2021/01/05 05:03:50;;;;;;;4.90;3.60;;;20.80;42.80;;;;;;5133673;27;20035;-38
2021/01/05 05:06:34;;;;;;;3.90;3.25;;;20.80;42.80;;;;;;5132904;27;20031;-38
2021/01/05 05:09:15;;;;;;;5.47;3.92;;;20.80;42.80;;;;;;5091843;28;20552;-39
2021/01/05 05:12:19;;;;;;;5.05;3.50;;;20.80;42.80;;;;;;5093176;28;20116;-40
2021/01/05 05:14:52;;;;;;;4.60;3.40;;;20.80;42.90;;;;;;5092356;28;20024;-61
2021/01/05 05:17:29;;;;;;;5.32;3.33;;;20.80;42.90;;;;;;5093216;28;20381;-39
2021/01/05 05:20:30;;;;;;;7.47;3.60;;;20.80;42.80;;;;;;5091857;28;20108;-36
2021/01/05 05:23:25;;;;;;;7.65;3.90;;;20.80;42.90;;;;;;5075924;28;20050;-38
2021/01/05 05:26:23;;;;;;;5.18;3.47;;;20.80;42.80;;;;;;5090780;28;20040;-37
2021/01/05 05:29:01;;;;;;;5.43;3.72;;;20.80;42.90;;;;;;5091373;28;20044;-40
2021/01/05 05:31:30;;;;;;;7.15;3.92;;;20.80;42.80;;;;;;5093002;28;20028;-38
2021/01/05 05:34:01;;;;;;;5.20;3.70;;;20.80;42.80;;;;;;5092007;28;20027;-33
2021/01/05 05:36:56;;;;;;;5.72;4.00;;;20.80;42.90;;;;;;5092773;28;20036;-39
2021/01/05 05:39:50;;;;;;;4.57;3.38;;;20.80;42.80;;;;;;5077008;28;20101;-38
2021/01/05 05:42:34;;;;;;;5.25;3.65;;;20.80;42.80;;;;;;5125521;27;20077;-44
2021/01/05 05:45:06;;;;;;;4.25;3.35;;;20.90;42.90;;;;;;5091430;28;20032;-38
2021/01/05 05:48:03;;;;;;;6.05;3.63;;;20.80;42.80;;;;;;5091528;28;20075;-43
2021/01/05 05:50:40;;;;;;;5.13;2.90;;;20.80;42.80;;;;;;5091464;28;20028;-37
2021/01/05 05:53:10;;;;;;;5.00;3.67;;;20.80;42.80;;;;;;5091381;28;20028;-41
2021/01/05 05:55:48;;;;;;;4.15;3.42;;;20.80;42.80;;;;;;5125137;27;20032;-39
2021/01/05 05:58:18;;;;;;;4.82;3.38;;;20.90;42.90;;;;;;5092432;28;20063;-39
2021/01/05 06:00:47;;;;;;;5.35;4.22;;;20.80;42.80;;;;;;5092080;28;20020;-39
2021/01/05 06:03:16;;;;;;;4.10;3.25;;;20.80;42.80;;;;;;5092020;28;20023;-40
2021/01/05 06:05:43;;;;;;;4.80;3.60;;;20.80;42.80;;;;;;5092201;28;20116;-40
2021/01/05 06:08:11;;;;;;;4.75;3.42;;;20.80;42.80;;;;;;5105887;28;20478;-45
2021/01/05 06:10:36;;;;;;;4.95;3.25;;;20.80;42.80;;;;;;5112308;28;20469;-42
2021/01/05 06:13:03;;;;;;;4.70;3.50;;;20.80;42.80;;;;;;5111765;28;20038;-36
2021/01/05 06:15:33;;;;;;;6.03;3.70;;;20.80;42.80;;;;;;5111744;28;20040;-38
2021/01/05 06:17:59;;;;;;;6.20;4.13;;;20.80;42.80;;;;;;5110632;28;20019;-36
2021/01/05 06:20:25;;;;;;;6.82;3.72;;;20.80;42.70;;;;;;5109732;28;20145;-38
2021/01/05 06:22:50;;;;;;;5.47;3.65;;;20.80;42.80;;;;;;5108808;28;20477;-47
2021/01/05 06:25:16;;;;;;;5.47;3.58;;;20.80;42.80;;;;;;5110807;28;20430;-40
2021/01/05 06:27:42;;;;;;;4.57;3.40;;;20.80;42.80;;;;;;5110874;28;20031;-40
2021/01/05 06:30:08;;;;;;;4.80;3.90;;;20.80;42.80;;;;;;5092040;28;20012;-38
2021/01/05 06:32:34;;;;;;;5.70;3.90;;;20.80;42.70;;;;;;5110943;28;20051;-40
2021/01/05 06:35:00;;;;;;;6.53;4.00;;;20.80;42.80;;;;;;5108972;28;20499;-40
2021/01/05 06:37:25;;;;;;;4.50;3.63;;;20.80;42.80;;;;;;5110879;28;20377;-43
2021/01/05 06:39:51;;;;;;;4.82;3.50;;;20.90;42.80;;;;;;5111244;28;20148;-38
2021/01/05 06:42:17;;;;;;;5.55;3.75;;;20.80;42.70;;;;;;5112107;28;20031;-41
2021/01/05 06:44:44;;;;;;;4.30;3.58;;;20.80;42.70;;;;;;5114769;28;20482;-41
2021/01/05 06:47:10;;;;;;;5.55;3.72;;;20.80;42.70;;;;;;5114017;28;20331;-39
2021/01/05 06:49:36;;;;;;;4.80;3.97;;;20.80;42.70;;;;;;5113494;28;20030;-35
2021/01/05 06:52:04;;;;;;;4.95;3.63;;;20.80;42.70;;;;;;5112803;28;20027;-41
2021/01/05 06:54:30;;;;;;;4.53;3.22;;;20.80;42.80;;;;;;5114596;28;20019;-44
2021/01/05 06:56:57;;;;;;;5.13;4.00;;;20.80;42.70;;;;;;5112618;28;20030;-39
2021/01/05 06:59:24;;;;;;;4.80;3.33;;;20.80;42.70;;;;;;5114765;28;20031;-37
2021/01/05 07:01:52;;;;;;;5.82;3.97;;;20.80;42.70;;;;;;5112937;28;20134;-60
2021/01/05 07:04:17;;;;;;;5.80;3.83;;;20.80;42.70;;;;;;5111976;28;20070;-46
2021/01/05 07:06:44;;;;;;;5.00;3.97;;;20.80;42.70;;;;;;5114557;28;20473;-39
2021/01/05 07:09:11;;;;;;;5.10;4.03;;;20.80;42.70;;;;;;5111977;28;20121;-44
2021/01/05 07:11:36;;;;;;;5.13;3.92;;;20.80;42.70;;;;;;5114167;28;20016;-38
2021/01/05 07:14:02;;;;;;;6.28;4.50;;;20.80;42.70;;;;;;5113451;28;20027;-40
2021/01/05 07:16:28;;;;;;;4.82;4.00;;;20.80;42.70;;;;;;5114456;28;20511;-43
2021/01/05 07:18:54;;;;;;;5.60;4.22;;;20.80;42.70;;;;;;5113534;28;20032;-41
2021/01/05 07:21:19;;;;;;;5.20;3.90;;;20.80;42.70;;;;;;5113009;28;20092;-44
2021/01/05 07:23:45;;;;;;;5.50;4.05;;;20.80;42.70;;;;;;5112758;28;20069;-33
2021/01/05 07:26:10;;;;;;;4.78;3.55;;;20.80;42.70;;;;;;5112940;28;20028;-47
2021/01/05 07:28:39;;;;;;;4.65;4.00;;;20.80;42.70;;;;;;5113385;28;20456;-45
2021/01/05 07:31:05;;;;;;;4.78;3.50;;;20.80;42.70;;;;;;5114649;28;20418;-39
2021/01/05 07:33:31;;;;;;;5.05;3.97;;;20.80;42.70;;;;;;5113824;28;20019;-39
2021/01/05 07:35:58;;;;;;;5.03;3.92;;;20.80;42.70;;;;;;5114870;28;20031;-40
2021/01/05 07:38:24;;;;;;;4.72;3.50;;;20.80;42.70;;;;;;5115420;28;20107;-40
2021/01/05 07:40:50;;;;;;;5.28;3.85;;;20.80;42.80;;;;;;5122738;27;20516;-63
2021/01/05 07:43:15;;;;;;;5.57;3.85;;;20.90;43.20;;;;;;5113711;28;20035;-40
2021/01/05 07:45:41;;;;;;;5.35;4.28;;;20.90;44.00;;;;;;5113706;28;20092;-43
2021/01/05 07:48:07;;;;;;;12.18;4.30;;;20.90;43.60;;;;;;5114372;27;20024;-43
2021/01/05 07:50:33;;;;;;;5.10;3.72;;;20.90;43.60;;;;;;5115014;28;20055;-40
2021/01/05 07:52:59;;;;;;;6.55;4.40;;;20.90;43.60;;;;;;5113431;28;20468;-40
2021/01/05 07:55:28;;;;;;;5.43;4.07;;;20.90;43.80;;;;;;5114847;28;20020;-46
2021/01/05 07:57:54;;;;;;;6.93;4.53;;;20.90;44.00;;;;;;5114139;27;20036;-42
2021/01/05 08:00:23;;;;;;;5.55;3.45;;;20.90;44.00;;;;;;5114872;28;20031;-39
2021/01/05 08:02:48;;;;;;;4.93;3.55;;;20.90;44.10;;;;;;5114570;28;20108;-55
2021/01/05 08:05:16;;;;;;;6.43;3.70;;;20.90;44.20;;;;;;5112633;28;20094;-50
2021/01/05 08:07:42;;;;;;;7.10;4.03;;;21.00;44.20;;;;;;5110991;28;20104;-46
2021/01/05 08:10:14;;;;;;;6.07;3.63;;;20.90;44.20;;;;;;5114025;27;20150;-37
2021/01/05 08:12:40;;;;;;;8.20;3.58;;;21.00;44.30;;;;;;5114405;28;20052;-48
2021/01/05 08:15:06;;;;;;;6.15;3.92;;;21.00;44.30;;;;;;5113674;28;20128;-36
2021/01/05 08:17:31;;;;;;;5.70;3.38;;;21.00;44.30;;;;;;5113197;28;20024;-43
2021/01/05 08:19:58;;;;;;;8.50;3.67;;;21.00;44.30;;;;;;5113320;28;20483;-55
2021/01/05 08:22:25;;;;;;;6.18;3.63;;;21.00;44.30;;;;;;5113424;28;20023;-41
2021/01/05 08:24:55;;;;;;;7.28;3.72;;;21.10;44.30;;;;;;5112726;28;20027;-56
2021/01/05 08:27:21;;;;;;;4.53;3.22;;;21.10;44.20;;;;;;5113002;28;20030;-43
2021/01/05 08:29:47;;;;;;;6.15;4.10;;;21.10;44.20;;;;;;5113872;28;20019;-41
2021/01/05 08:32:13;;;;;;;8.65;4.05;;;21.10;44.20;;;;;;5112683;28;20035;-41
2021/01/05 08:34:39;;;;;;;4.68;3.42;;;21.20;44.10;;;;;;5113923;28;20549;-41
2021/01/05 08:37:04;;;;;;;6.93;3.83;;;21.20;44.00;;;;;;5112629;28;20102;-38
2021/01/05 08:39:31;;;;;;;8.07;3.70;;;21.20;43.90;;;;;;5116177;27;20063;-42
2021/01/05 08:41:57;;;;;;;6.63;3.88;;;21.30;44.20;;;;;;5133669;27;20020;-41
2021/01/05 08:44:25;;;;;;;14.55;5.05;;;21.40;44.00;;;;;;5133919;27;20488;-41
2021/01/05 08:46:59;;;;;;;6.88;3.92;;;21.40;43.90;;;;;;5135837;27;20039;-53
2021/01/05 08:49:25;;;;;;;11.52;3.70;;;21.40;44.00;;;;;;5113098;27;20069;-53
2021/01/05 08:51:53;;;;;;;6.63;3.88;;;21.50;44.40;;;;;;5112082;28;20031;-57
2021/01/05 08:54:19;;;;;;;6.00;3.72;;;21.60;44.60;;;;;;5113119;28;20423;-38
2021/01/05 08:56:45;;;;;;;9.65;4.28;;;21.60;44.50;;;;;;5113268;28;20057;-38
2021/01/05 08:59:10;;;;;;;16.50;5.47;;;21.60;43.30;;;;;;5112626;28;20089;-37
2021/01/05 09:01:36;;;;;;;16.83;5.03;;;21.50;44.30;;;;;;5113169;28;20024;-40
2021/01/05 09:04:02;;;;;;;5.88;3.70;;;21.60;44.40;;;;;;5112482;28;20035;-41
2021/01/05 09:06:27;;;;;;;9.55;3.92;;;21.50;44.20;;;;;;5113382;28;20027;-41
2021/01/05 09:08:54;;;;;;;5.03;3.65;;;21.60;44.20;;;;;;5112487;28;20048;-53
2021/01/05 09:11:25;;;;;;;8.07;3.90;;;21.50;44.20;;;;;;5132905;27;20043;-42
2021/01/05 09:13:52;;;;;;;7.75;3.65;;;21.50;44.30;;;;;;5133312;27;20546;-55
2021/01/05 09:16:27;;;;;;;8.65;3.97;;;21.50;44.20;;;;;;5133954;27;20079;-36
2021/01/05 09:18:56;;;;;;;7.90;4.22;;;21.50;44.20;;;;;;5131821;27;20034;-53
2021/01/05 09:21:24;;;;;;;10.43;3.85;;;21.70;44.10;;;;;;5133776;27;20054;-39
2021/01/05 09:23:58;;;;;;;11.77;3.88;;;21.60;43.60;;;;;;5132453;27;20111;-45
2021/01/05 09:26:30;;;;;;;10.93;5.20;;;21.50;44.60;;;;;;5133896;27;20046;-38
2021/01/05 09:28:56;;;;;;;13.15;4.57;;;21.40;44.60;;;;;;5132960;27;20032;-39
2021/01/05 09:31:22;;;;;;;11.38;7.88;;;21.40;43.20;;;;;;5133579;27;20035;-37
2021/01/05 09:33:48;;;;;;;10.95;8.75;;;19.20;33.60;;;;;;5133155;27;20097;-44
2021/01/05 09:36:15;;;;;;;10.63;9.00;;;16.50;38.20;;;;;;5132598;27;20577;-38
2021/01/05 09:38:42;;;;;;;11.50;8.65;;;15.40;40.10;;;;;;5133527;27;20031;-36
2021/01/05 09:41:22;;;;;;;12.35;9.40;;;14.70;41.70;;;;;;5132429;27;20037;-39
2021/01/05 09:43:48;;;;;;;10.32;8.25;;;14.40;42.30;;;;;;5118303;27;20032;-44
2021/01/05 09:46:14;;;;;;;12.68;8.68;;;14.10;43.20;;;;;;5110973;28;20051;-40
2021/01/05 09:48:39;;;;;;;13.15;8.13;;;15.90;40.80;;;;;;5110413;28;20066;-40
2021/01/05 09:51:05;;;;;;;10.70;7.20;;;17.50;39.30;;;;;;5092766;28;20027;-38
2021/01/05 09:53:31;;;;;;;13.52;7.03;;;18.50;38.60;;;;;;5111641;28;20076;-45
2021/01/05 09:55:57;;;;;;;8.40;5.75;;;19.20;38.30;;;;;;5110632;28;20495;-40
2021/01/05 09:58:22;;;;;;;9.38;5.95;;;19.50;38.10;;;;;;5111000;28;20422;-41
2021/01/05 10:00:48;;;;;;;7.72;5.78;;;19.80;38.10;;;;;;5110009;28;20024;-40
2021/01/05 10:03:13;;;;;;;8.00;5.55;;;20.00;38.50;;;;;;5110655;28;20035;-42
2021/01/05 10:05:39;;;;;;;8.07;5.15;;;20.20;38.50;;;;;;5111687;28;20460;-41
2021/01/05 10:08:05;;;;;;;9.18;5.57;;;20.30;38.70;;;;;;5111272;28;20094;-38
2021/01/05 10:10:31;;;;;;;10.18;6.13;;;20.40;38.80;;;;;;5124913;27;20509;-37
2021/01/05 10:12:57;;;;;;;8.23;5.70;;;20.40;39.00;;;;;;5132398;27;20027;-39
2021/01/05 10:15:24;;;;;;;8.57;4.93;;;20.50;39.20;;;;;;5132582;27;20030;-39
2021/01/05 10:17:49;;;;;;;8.80;5.05;;;20.60;39.30;;;;;;5126134;27;20388;-36
2021/01/05 10:20:17;;;;;;;5.97;4.97;;;20.60;39.50;;;;;;5110058;28;20525;-39
2021/01/05 10:22:43;;;;;;;7.95;4.95;;;20.60;39.50;;;;;;5112425;28;20031;-39
2021/01/05 10:25:11;;;;;;;8.70;4.47;;;20.60;39.50;;;;;;5111570;28;20107;-38
2021/01/05 10:27:37;;;;;;;11.35;5.25;;;20.60;39.60;;;;;;5112121;28;20459;-39
2021/01/05 10:30:08;;;;;;;8.80;4.45;;;20.70;39.80;;;;;;5111109;28;20034;-39
2021/01/05 10:32:34;;;;;;;10.35;4.47;;;20.70;39.80;;;;;;5112240;28;20019;-38
2021/01/05 10:35:00;;;;;;;9.85;4.60;;;20.70;40.00;;;;;;5111482;28;20082;-36
2021/01/05 10:37:25;;;;;;;12.05;5.07;;;20.70;40.10;;;;;;5111956;28;20024;-40
2021/01/05 10:39:51;;;;;;;7.43;4.30;;;20.70;40.20;;;;;;5118247;28;20031;-38
2021/01/05 10:42:17;;;;;;;8.60;5.18;;;20.80;40.20;;;;;;5120786;27;20020;-39
2021/01/05 10:44:43;;;;;;;12.07;5.13;;;20.80;40.50;;;;;;5110572;28;20020;-42
2021/01/05 10:47:13;;;;;;;8.70;5.00;;;20.90;40.30;;;;;;5109987;28;20035;-40
2021/01/05 10:49:40;;;;;;;8.02;4.30;;;20.90;40.50;;;;;;5110929;28;20346;-38
2021/01/05 10:52:06;;;;;;;10.90;5.47;;;20.90;40.50;;;;;;5110189;28;20415;-47
2021/01/05 10:54:32;;;;;;;7.13;4.72;;;20.90;40.50;;;;;;5110992;28;20034;-40
2021/01/05 10:57:00;;;;;;;8.95;4.30;;;21.00;40.60;;;;;;5108823;28;20024;-41
2021/01/05 10:59:27;;;;;;;7.65;4.68;;;20.90;40.60;;;;;;5109257;28;20035;-40
2021/01/05 11:01:55;;;;;;;8.57;4.85;;;20.90;40.80;;;;;;5110472;28;20040;-55
2021/01/05 11:04:24;;;;;;;6.22;4.22;;;20.90;40.80;;;;;;5110893;28;20492;-37
2021/01/05 11:06:59;;;;;;;8.07;4.35;;;20.90;40.90;;;;;;5109475;28;20024;-40
2021/01/05 11:09:25;;;;;;;6.43;4.90;;;21.00;40.80;;;;;;5109770;28;20568;-39
2021/01/05 11:11:59;;;;;;;6.68;4.47;;;21.10;40.90;;;;;;5084821;28;20119;-38
2021/01/05 11:14:25;;;;;;;7.85;4.35;;;21.10;41.00;;;;;;5070525;28;20032;-39
2021/01/05 11:16:51;;;;;;;8.07;5.32;;;21.10;41.10;;;;;;5084980;28;20556;-35
2021/01/05 11:19:16;;;;;;;9.30;4.22;;;21.10;41.10;;;;;;5087102;28;20016;-38
2021/01/05 11:21:55;;;;;;;8.45;4.32;;;21.10;41.00;;;;;;5087574;28;20385;-38
2021/01/05 11:24:21;;;;;;;8.95;3.67;;;21.10;41.00;;;;;;5086230;28;20115;-38
2021/01/05 11:26:48;;;;;;;6.32;4.32;;;21.10;41.00;;;;;;5090060;28;20036;-36
2021/01/05 11:29:14;;;;;;;7.03;4.18;;;21.10;41.10;;;;;;5090240;28;20028;-40
2021/01/05 11:31:40;;;;;;;7.50;4.55;;;21.20;41.00;;;;;;5091325;28;20082;-40
2021/01/05 11:34:06;;;;;;;6.65;4.30;;;21.20;41.10;;;;;;5090217;28;20123;-45
2021/01/05 11:36:32;;;;;;;7.63;3.90;;;21.20;41.10;;;;;;5091167;28;20027;-43
2021/01/05 11:38:58;;;;;;;5.22;3.80;;;21.20;41.20;;;;;;5090250;28;20031;-44
2021/01/05 11:41:30;;;;;;;6.45;4.00;;;21.20;41.20;;;;;;5073912;28;20080;-43
2021/01/05 11:43:56;;;;;;;;;;;21.20;41.30;;;;;;5109363;28;20027;-56
2021/01/05 11:46:22;;;;;;;5.47;4.13;;;21.30;41.30;;;;;;5111650;28;19911;-35
2021/01/05 11:48:50;;;;;;;9.50;4.65;;;21.30;41.20;;;;;;5113013;28;20460;-41
2021/01/05 11:51:20;;;;;;;7.13;4.18;;;21.30;41.30;;;;;;5112228;28;20026;-46
2021/01/05 11:53:46;;;;;;;10.20;4.10;;;21.40;41.50;;;;;;5111569;28;20027;-47
2021/01/05 11:56:24;;;;;;;9.25;4.35;;;21.40;41.50;;;;;;5111049;28;20031;-40
2021/01/05 11:58:50;;;;;;;5.10;4.20;;;21.40;41.40;;;;;;5112973;28;20104;-40
2021/01/05 12:01:16;;;;;;;7.35;5.05;;;21.40;41.60;;;;;;5110414;28;20051;-41
2021/01/05 12:03:43;;;;;;;5.97;3.90;;;21.40;41.50;;;;;;5112736;28;20380;-40
2021/01/05 12:06:27;;;;;;;6.10;4.00;;;21.40;41.70;;;;;;5111578;28;20381;-40
2021/01/05 12:08:53;;;;;;;6.32;3.72;;;21.40;41.70;;;;;;5112429;28;20130;-40
2021/01/05 12:11:28;;;;;;;5.20;3.90;;;21.40;41.70;;;;;;5112864;27;20092;-40
2021/01/05 12:13:56;;;;;;;6.50;4.20;;;21.40;41.60;;;;;;5110766;28;20024;-50
2021/01/05 12:16:32;;;;;;;6.72;3.72;;;21.40;41.70;;;;;;5112381;28;20102;-40
2021/01/05 12:19:00;;;;;;;9.60;4.28;;;21.40;41.70;;;;;;5110647;28;20464;-41
2021/01/05 12:21:29;;;;;;;5.28;3.85;;;21.40;41.80;;;;;;5112877;28;20027;-41
2021/01/05 12:23:56;;;;;;;5.50;3.85;;;21.40;41.90;;;;;;5111268;28;20495;-56
2021/01/05 12:26:34;;;;;;;6.78;4.10;;;21.40;41.80;;;;;;5111482;28;20031;-40
2021/01/05 12:29:03;;;;;;;5.72;4.32;;;21.40;41.80;;;;;;5110748;28;20023;-44
2021/01/05 12:31:29;;;;;;;6.07;3.90;;;21.40;41.90;;;;;;5112490;28;20038;-40
2021/01/05 12:33:57;;;;;;;6.65;3.83;;;21.40;41.70;;;;;;5110952;28;20110;-57
2021/01/05 12:36:33;;;;;;;6.20;4.07;;;21.40;41.80;;;;;;5112643;27;20016;-40
2021/01/05 12:39:00;;;;;;;6.75;4.22;;;21.40;41.80;;;;;;5109774;28;20032;-40
2021/01/05 12:41:35;;;;;;;8.98;3.85;;;21.40;41.90;;;;;;5111801;28;20101;-40
2021/01/05 12:44:02;;;;;;;5.22;3.55;;;21.50;42.00;;;;;;5110703;28;20064;-42
2021/01/05 12:46:30;;;;;;;5.70;3.58;;;21.40;42.00;;;;;;5111864;28;20175;-41
2021/01/05 12:48:56;;;;;;;6.13;4.18;;;21.40;42.10;;;;;;5112544;28;20015;-48
2021/01/05 12:51:29;;;;;;;6.80;4.60;;;21.40;42.10;;;;;;5110937;28;20148;-40
2021/01/05 12:53:55;;;;;;;5.20;4.00;;;21.40;42.10;;;;;;5142478;27;20027;-55
2021/01/05 12:56:22;;;;;;;5.78;4.18;;;21.40;42.40;;;;;;5111740;28;20027;-46
2021/01/05 12:58:49;;;;;;;6.88;3.92;;;21.40;42.70;;;;;;5112535;28;20475;-41
2021/01/05 13:01:16;;;;;;;5.72;4.15;;;21.50;42.80;;;;;;5111544;28;20059;-45
2021/01/05 13:03:44;;;;;;;6.38;4.30;;;21.40;42.80;;;;;;5110852;28;20020;-44